sensor_id;sensor_type;location;lat;lon;timestamp;pressure;altitude;pressure_sealevel;temperature;humidity
60055;BME280;45930;53.514;55.904;2024-02-16T00:00:50;50304.72;;;-149.77;57.68
60055;BME280;45930;53.514;55.904;2024-02-16T00:01:51;50269.06;;;-149.77;57.39
60055;BME280;45930;53.514;55.904;2024-02-16T00:02:52;50267.09;;;-149.77;57.59
60055;BME280;45930;53.514;55.904;2024-02-16T00:03:53;50310.69;;;-149.77;57.78
60055;BME280;45930;53.514;55.904;2024-02-16T00:04:53;50292.84;;;-149.77;57.92
60055;BME280;45930;53.514;55.904;2024-02-16T00:05:54;50308.69;;;-149.77;57.91
60055;BME280;45930;53.514;55.904;2024-02-16T00:06:55;50282.94;;;-149.77;57.71
60055;BME280;45930;53.514;55.904;2024-02-16T00:07:56;50300.78;;;-149.77;57.18
60055;BME280;45930;53.514;55.904;2024-02-16T00:08:57;50271.06;;;-149.77;56.77
60055;BME280;45930;53.514;55.904;2024-02-16T00:09:58;50275.00;;;-149.77;56.72
60055;BME280;45930;53.514;55.904;2024-02-16T00:10:59;50296.81;;;-149.77;56.57
60055;BME280;45930;53.514;55.904;2024-02-16T00:12:00;50304.72;;;-149.77;56.51
60055;BME280;45930;53.514;55.904;2024-02-16T00:13:01;50354.28;;;-149.77;56.70
60055;BME280;45930;53.514;55.904;2024-02-16T00:14:02;50348.31;;;-149.77;56.43
60055;BME280;45930;53.514;55.904;2024-02-16T00:15:03;50334.44;;;-149.77;55.27
60055;BME280;45930;53.514;55.904;2024-02-16T00:16:04;50378.03;;;-149.77;54.24
60055;BME280;45930;53.514;55.904;2024-02-16T00:17:05;50407.75;;;-149.77;53.98
60055;BME280;45930;53.514;55.904;2024-02-16T00:18:07;50407.75;;;-149.77;53.51
60055;BME280;45930;53.514;55.904;2024-02-16T00:19:08;50411.72;;;-149.77;53.52
60055;BME280;45930;53.514;55.904;2024-02-16T00:20:09;50407.75;;;-149.77;54.01
60055;BME280;45930;53.514;55.904;2024-02-16T00:21:12;50378.03;;;-149.77;54.49
60055;BME280;45930;53.514;55.904;2024-02-16T00:22:13;50397.84;;;-149.77;54.66
60055;BME280;45930;53.514;55.904;2024-02-16T00:23:14;50413.72;;;-149.77;55.21
60055;BME280;45930;53.514;55.904;2024-02-16T00:24:14;50415.69;;;-149.77;55.43
60055;BME280;45930;53.514;55.904;2024-02-16T00:25:15;50419.66;;;-149.77;55.43
60055;BME280;45930;53.514;55.904;2024-02-16T00:26:16;50431.53;;;-149.77;55.67
60055;BME280;45930;53.514;55.904;2024-02-16T00:27:17;50423.63;;;-149.77;55.82
60055;BME280;45930;53.514;55.904;2024-02-16T00:28:17;50376.06;;;-149.77;55.40
60055;BME280;45930;53.514;55.904;2024-02-16T00:29:19;50457.28;;;-149.77;54.96
60055;BME280;45930;53.514;55.904;2024-02-16T00:30:20;50469.19;;;-149.77;54.97
60055;BME280;45930;53.514;55.904;2024-02-16T00:31:20;50467.22;;;-149.77;54.66
60055;BME280;45930;53.514;55.904;2024-02-16T00:32:21;50417.66;;;-149.77;54.78
60055;BME280;45930;53.514;55.904;2024-02-16T00:33:24;50467.22;;;-149.77;54.76
60055;BME280;45930;53.514;55.904;2024-02-16T00:34:25;50437.47;;;-149.77;54.96
60055;BME280;45930;53.514;55.904;2024-02-16T00:35:27;50449.38;;;-149.77;54.71
60055;BME280;45930;53.514;55.904;2024-02-16T00:36:27;50459.28;;;-149.77;54.52
60055;BME280;45930;53.514;55.904;2024-02-16T00:37:28;50467.22;;;-149.77;54.97
60055;BME280;45930;53.514;55.904;2024-02-16T00:38:29;50473.16;;;-149.77;55.75
60055;BME280;45930;53.514;55.904;2024-02-16T00:39:30;50471.16;;;-149.77;56.35
60055;BME280;45930;53.514;55.904;2024-02-16T00:40:30;50441.44;;;-149.77;56.80
60055;BME280;45930;53.514;55.904;2024-02-16T00:41:31;50483.06;;;-149.77;57.59
60055;BME280;45930;53.514;55.904;2024-02-16T00:42:32;50481.06;;;-149.77;58.05
60055;BME280;45930;53.514;55.904;2024-02-16T00:43:33;50471.16;;;-149.77;57.95
60055;BME280;45930;53.514;55.904;2024-02-16T00:44:33;50433.53;;;-149.77;58.21
60055;BME280;45930;53.514;55.904;2024-02-16T00:45:34;50419.66;;;-149.77;58.00
60055;BME280;45930;53.514;55.904;2024-02-16T00:46:36;50419.66;;;-149.77;58.75
60055;BME280;45930;53.514;55.904;2024-02-16T00:47:36;50421.63;;;-149.77;59.18
60055;BME280;45930;53.514;55.904;2024-02-16T00:48:38;50441.44;;;-149.77;59.39
60055;BME280;45930;53.514;55.904;2024-02-16T00:49:39;50387.94;;;-149.77;59.29
60055;BME280;45930;53.514;55.904;2024-02-16T00:50:39;50389.94;;;-149.77;58.92
60055;BME280;45930;53.514;55.904;2024-02-16T00:51:42;50395.88;;;-149.77;58.53
60055;BME280;45930;53.514;55.904;2024-02-16T00:52:43;50407.75;;;-149.77;58.50
60055;BME280;45930;53.514;55.904;2024-02-16T00:53:46;50384.00;;;-149.77;58.47
60055;BME280;45930;53.514;55.904;2024-02-16T00:54:47;50415.69;;;-149.77;58.42
60055;BME280;45930;53.514;55.904;2024-02-16T00:55:47;50376.06;;;-149.77;58.60
60055;BME280;45930;53.514;55.904;2024-02-16T00:56:48;50395.88;;;-149.77;58.96
60055;BME280;45930;53.514;55.904;2024-02-16T00:57:49;50374.09;;;-149.77;59.09
60055;BME280;45930;53.514;55.904;2024-02-16T00:58:50;50407.75;;;-149.77;58.84
60055;BME280;45930;53.514;55.904;2024-02-16T00:59:51;50376.06;;;-149.77;58.70
60055;BME280;45930;53.514;55.904;2024-02-16T01:00:51;50346.34;;;-149.77;58.34
60055;BME280;45930;53.514;55.904;2024-02-16T01:01:53;50417.66;;;-149.77;57.98
60055;BME280;45930;53.514;55.904;2024-02-16T01:02:54;50382.00;;;-149.77;57.98
60055;BME280;45930;53.514;55.904;2024-02-16T01:03:54;50366.16;;;-149.77;58.01
60055;BME280;45930;53.514;55.904;2024-02-16T01:04:55;50397.84;;;-149.77;57.89
60055;BME280;45930;53.514;55.904;2024-02-16T01:06:02;50403.81;;;-149.77;58.00
60055;BME280;45930;53.514;55.904;2024-02-16T01:07:03;50449.38;;;-149.77;57.88
60055;BME280;45930;53.514;55.904;2024-02-16T01:08:04;50409.75;;;-149.77;57.93
60055;BME280;45930;53.514;55.904;2024-02-16T01:09:04;50380.03;;;-149.77;57.77
60055;BME280;45930;53.514;55.904;2024-02-16T01:10:06;50435.50;;;-149.77;57.56
60055;BME280;45930;53.514;55.904;2024-02-16T01:11:07;50443.44;;;-149.77;56.94
60055;BME280;45930;53.514;55.904;2024-02-16T01:12:08;50407.75;;;-149.77;57.11
60055;BME280;45930;53.514;55.904;2024-02-16T01:13:09;50419.66;;;-149.77;57.26
60055;BME280;45930;53.514;55.904;2024-02-16T01:14:10;50399.84;;;-149.77;57.05
60055;BME280;45930;53.514;55.904;2024-02-16T01:15:11;50417.66;;;-149.77;56.91
60055;BME280;45930;53.514;55.904;2024-02-16T01:16:12;50387.94;;;-149.77;57.02
60055;BME280;45930;53.514;55.904;2024-02-16T01:17:12;50427.56;;;-149.77;56.74
60055;BME280;45930;53.514;55.904;2024-02-16T01:18:14;50415.69;;;-149.77;56.62
60055;BME280;45930;53.514;55.904;2024-02-16T01:19:15;50423.63;;;-149.77;56.35
60055;BME280;45930;53.514;55.904;2024-02-16T01:20:16;50395.88;;;-149.77;56.45
60055;BME280;45930;53.514;55.904;2024-02-16T01:21:16;50405.78;;;-149.77;56.32
60055;BME280;45930;53.514;55.904;2024-02-16T01:22:17;50376.06;;;-149.77;55.85
60055;BME280;45930;53.514;55.904;2024-02-16T01:23:19;50417.66;;;-149.77;55.63
60055;BME280;45930;53.514;55.904;2024-02-16T01:24:20;50370.13;;;-149.77;55.81
60055;BME280;45930;53.514;55.904;2024-02-16T01:25:21;50415.69;;;-149.77;55.72
60055;BME280;45930;53.514;55.904;2024-02-16T01:26:22;50401.81;;;-149.77;55.33
60055;BME280;45930;53.514;55.904;2024-02-16T01:27:23;50415.69;;;-149.77;55.26
60055;BME280;45930;53.514;55.904;2024-02-16T01:28:23;50393.91;;;-149.77;55.33
60055;BME280;45930;53.514;55.904;2024-02-16T01:29:24;50423.63;;;-149.77;54.98
60055;BME280;45930;53.514;55.904;2024-02-16T01:30:25;50389.94;;;-149.77;54.84
60055;BME280;45930;53.514;55.904;2024-02-16T01:31:25;50384.00;;;-149.77;54.79
60055;BME280;45930;53.514;55.904;2024-02-16T01:32:26;50435.50;;;-149.77;54.41
60055;BME280;45930;53.514;55.904;2024-02-16T01:33:27;50399.84;;;-149.77;54.41
60055;BME280;45930;53.514;55.904;2024-02-16T01:34:29;50403.81;;;-149.77;54.63
60055;BME280;45930;53.514;55.904;2024-02-16T01:35:33;50344.34;;;-149.77;54.29
60055;BME280;45930;53.514;55.904;2024-02-16T01:36:34;50387.94;;;-149.77;54.09
60055;BME280;45930;53.514;55.904;2024-02-16T01:37:35;50431.53;;;-149.77;54.04
60055;BME280;45930;53.514;55.904;2024-02-16T01:38:36;50368.13;;;-149.77;53.97
60055;BME280;45930;53.514;55.904;2024-02-16T01:39:36;50415.69;;;-149.77;53.67
60055;BME280;45930;53.514;55.904;2024-02-16T01:40:37;50382.00;;;-149.77;53.54
60055;BME280;45930;53.514;55.904;2024-02-16T01:41:38;50376.06;;;-149.77;53.19
60055;BME280;45930;53.514;55.904;2024-02-16T01:42:41;50399.84;;;-149.77;52.95
60055;BME280;45930;53.514;55.904;2024-02-16T01:43:42;50401.81;;;-149.77;52.93
60055;BME280;45930;53.514;55.904;2024-02-16T01:44:43;50391.91;;;-149.77;53.01
60055;BME280;45930;53.514;55.904;2024-02-16T01:45:43;50395.88;;;-149.77;52.76
60055;BME280;45930;53.514;55.904;2024-02-16T01:46:44;50387.94;;;-149.77;52.67
60055;BME280;45930;53.514;55.904;2024-02-16T01:47:47;50356.25;;;-149.77;52.82
60055;BME280;45930;53.514;55.904;2024-02-16T01:48:49;50378.03;;;-149.77;53.08
60055;BME280;45930;53.514;55.904;2024-02-16T01:49:51;50389.94;;;-149.77;53.14
60055;BME280;45930;53.514;55.904;2024-02-16T01:50:52;50427.56;;;-149.77;52.83
60055;BME280;45930;53.514;55.904;2024-02-16T01:51:54;50401.81;;;-149.77;53.08
60055;BME280;45930;53.514;55.904;2024-02-16T01:52:55;50403.81;;;-149.77;53.13
60055;BME280;45930;53.514;55.904;2024-02-16T01:53:56;50431.53;;;-149.77;52.90
60055;BME280;45930;53.514;55.904;2024-02-16T01:54:57;50413.72;;;-149.77;52.95
60055;BME280;45930;53.514;55.904;2024-02-16T01:55:58;50378.03;;;-149.77;52.96
60055;BME280;45930;53.514;55.904;2024-02-16T01:57:00;50382.00;;;-149.77;53.05
60055;BME280;45930;53.514;55.904;2024-02-16T01:58:02;50348.31;;;-149.77;52.77
60055;BME280;45930;53.514;55.904;2024-02-16T01:59:03;50384.00;;;-149.77;52.62
60055;BME280;45930;53.514;55.904;2024-02-16T02:00:04;50372.09;;;-149.77;52.70
60055;BME280;45930;53.514;55.904;2024-02-16T02:01:08;50387.94;;;-149.77;52.63
60055;BME280;45930;53.514;55.904;2024-02-16T02:02:08;50399.84;;;-149.77;52.45
60055;BME280;45930;53.514;55.904;2024-02-16T02:03:09;50380.03;;;-149.77;52.75
60055;BME280;45930;53.514;55.904;2024-02-16T02:04:10;50413.72;;;-149.77;52.33
60055;BME280;45930;53.514;55.904;2024-02-16T02:05:11;50391.91;;;-149.77;52.37
60055;BME280;45930;53.514;55.904;2024-02-16T02:06:13;50413.72;;;-149.77;52.51
60055;BME280;45930;53.514;55.904;2024-02-16T02:07:15;50421.63;;;-149.77;52.66
60055;BME280;45930;53.514;55.904;2024-02-16T02:08:16;50427.56;;;-149.77;52.84
60055;BME280;45930;53.514;55.904;2024-02-16T02:09:16;50415.69;;;-149.77;52.52
60055;BME280;45930;53.514;55.904;2024-02-16T02:10:17;50415.69;;;-149.77;52.98
60055;BME280;45930;53.514;55.904;2024-02-16T02:11:19;50433.53;;;-149.77;52.75
60055;BME280;45930;53.514;55.904;2024-02-16T02:12:21;50403.81;;;-149.77;52.81
60055;BME280;45930;53.514;55.904;2024-02-16T02:13:22;50415.69;;;-149.77;52.87
60055;BME280;45930;53.514;55.904;2024-02-16T02:14:23;50409.75;;;-149.77;52.89
60055;BME280;45930;53.514;55.904;2024-02-16T02:15:26;50374.09;;;-149.77;52.78
60055;BME280;45930;53.514;55.904;2024-02-16T02:16:27;50419.66;;;-149.77;52.88
60055;BME280;45930;53.514;55.904;2024-02-16T02:17:28;50437.47;;;-149.77;52.85
60055;BME280;45930;53.514;55.904;2024-02-16T02:18:29;50382.00;;;-149.77;52.77
60055;BME280;45930;53.514;55.904;2024-02-16T02:19:30;50395.88;;;-149.77;53.16
60055;BME280;45930;53.514;55.904;2024-02-16T02:20:30;50407.75;;;-149.77;53.12
60055;BME280;45930;53.514;55.904;2024-02-16T02:21:31;50413.72;;;-149.77;53.35
60055;BME280;45930;53.514;55.904;2024-02-16T02:22:32;50385.97;;;-149.77;53.23
60055;BME280;45930;53.514;55.904;2024-02-16T02:23:33;50384.00;;;-149.77;53.19
60055;BME280;45930;53.514;55.904;2024-02-16T02:24:34;50431.53;;;-149.77;53.00
60055;BME280;45930;53.514;55.904;2024-02-16T02:25:35;50405.78;;;-149.77;53.24
60055;BME280;45930;53.514;55.904;2024-02-16T02:26:38;50397.84;;;-149.77;52.90
60055;BME280;45930;53.514;55.904;2024-02-16T02:27:38;50374.09;;;-149.77;53.16
60055;BME280;45930;53.514;55.904;2024-02-16T02:28:39;50399.84;;;-149.77;52.97
60055;BME280;45930;53.514;55.904;2024-02-16T02:29:41;50399.84;;;-149.77;52.98
60055;BME280;45930;53.514;55.904;2024-02-16T02:30:44;50368.13;;;-149.77;53.18
60055;BME280;45930;53.514;55.904;2024-02-16T02:31:45;50387.94;;;-149.77;52.93
60055;BME280;45930;53.514;55.904;2024-02-16T02:32:47;50378.03;;;-149.77;53.05
60055;BME280;45930;53.514;55.904;2024-02-16T02:33:49;50384.00;;;-149.77;52.86
60055;BME280;45930;53.514;55.904;2024-02-16T02:34:49;50376.06;;;-149.77;52.72
60055;BME280;45930;53.514;55.904;2024-02-16T02:35:50;50407.75;;;-149.77;52.92
60055;BME280;45930;53.514;55.904;2024-02-16T02:36:51;50409.75;;;-149.77;52.88
60055;BME280;45930;53.514;55.904;2024-02-16T02:37:52;50395.88;;;-149.77;52.77
60055;BME280;45930;53.514;55.904;2024-02-16T02:38:53;50417.66;;;-149.77;52.51
60055;BME280;45930;53.514;55.904;2024-02-16T02:39:54;50405.78;;;-149.77;52.69
60055;BME280;45930;53.514;55.904;2024-02-16T02:40:54;50427.56;;;-149.77;52.45
60055;BME280;45930;53.514;55.904;2024-02-16T02:41:55;50395.88;;;-149.77;52.46
60055;BME280;45930;53.514;55.904;2024-02-16T02:42:56;50399.84;;;-149.77;52.38
60055;BME280;45930;53.514;55.904;2024-02-16T02:43:57;50401.81;;;-149.77;52.40
60055;BME280;45930;53.514;55.904;2024-02-16T02:44:57;50419.66;;;-149.77;52.35
60055;BME280;45930;53.514;55.904;2024-02-16T02:45:58;50419.66;;;-149.77;51.81
60055;BME280;45930;53.514;55.904;2024-02-16T02:46:59;50421.63;;;-149.77;52.30
60055;BME280;45930;53.514;55.904;2024-02-16T02:48:00;50405.78;;;-149.77;52.00
60055;BME280;45930;53.514;55.904;2024-02-16T02:49:01;50441.44;;;-149.77;52.26
60055;BME280;45930;53.514;55.904;2024-02-16T02:50:02;50441.44;;;-149.77;51.96
60055;BME280;45930;53.514;55.904;2024-02-16T02:51:03;50419.66;;;-149.77;52.30
60055;BME280;45930;53.514;55.904;2024-02-16T02:52:04;50421.63;;;-149.77;52.15
60055;BME280;45930;53.514;55.904;2024-02-16T02:53:07;50409.75;;;-149.77;51.99
60055;BME280;45930;53.514;55.904;2024-02-16T02:54:07;50405.78;;;-149.77;51.77
60055;BME280;45930;53.514;55.904;2024-02-16T02:55:08;50429.56;;;-149.77;51.47
60055;BME280;45930;53.514;55.904;2024-02-16T02:56:09;50417.66;;;-149.77;51.37
60055;BME280;45930;53.514;55.904;2024-02-16T02:57:10;50417.66;;;-149.77;51.46
60055;BME280;45930;53.514;55.904;2024-02-16T02:58:10;50443.44;;;-149.77;51.42
60055;BME280;45930;53.514;55.904;2024-02-16T02:59:11;50435.50;;;-149.77;51.46
60055;BME280;45930;53.514;55.904;2024-02-16T03:00:12;50413.72;;;-149.77;51.90
60055;BME280;45930;53.514;55.904;2024-02-16T03:01:13;50384.00;;;-149.77;51.86
60055;BME280;45930;53.514;55.904;2024-02-16T03:02:14;50401.81;;;-149.77;52.15
60055;BME280;45930;53.514;55.904;2024-02-16T03:03:15;50409.75;;;-149.77;52.35
60055;BME280;45930;53.514;55.904;2024-02-16T03:04:16;50399.84;;;-149.77;52.45
60055;BME280;45930;53.514;55.904;2024-02-16T03:05:17;50399.84;;;-149.77;52.29
60055;BME280;45930;53.514;55.904;2024-02-16T03:06:20;50382.00;;;-149.77;52.47
60055;BME280;45930;53.514;55.904;2024-02-16T03:07:21;50405.78;;;-149.77;52.72
60055;BME280;45930;53.514;55.904;2024-02-16T03:08:22;50423.63;;;-149.77;51.98
60055;BME280;45930;53.514;55.904;2024-02-16T03:09:22;50413.72;;;-149.77;51.85
60055;BME280;45930;53.514;55.904;2024-02-16T03:10:23;50399.84;;;-149.77;52.13
60055;BME280;45930;53.514;55.904;2024-02-16T03:11:24;50401.81;;;-149.77;51.63
60055;BME280;45930;53.514;55.904;2024-02-16T03:12:25;50419.66;;;-149.77;51.85
60055;BME280;45930;53.514;55.904;2024-02-16T03:13:26;50380.03;;;-149.77;51.78
60055;BME280;45930;53.514;55.904;2024-02-16T03:14:27;50423.63;;;-149.77;51.94
60055;BME280;45930;53.514;55.904;2024-02-16T03:15:27;50395.88;;;-149.77;51.85
60055;BME280;45930;53.514;55.904;2024-02-16T03:16:29;50411.72;;;-149.77;51.62
60055;BME280;45930;53.514;55.904;2024-02-16T03:17:30;50427.56;;;-149.77;51.44
60055;BME280;45930;53.514;55.904;2024-02-16T03:18:34;50382.00;;;-149.77;51.65
60055;BME280;45930;53.514;55.904;2024-02-16T03:19:35;50387.94;;;-149.77;51.25
60055;BME280;45930;53.514;55.904;2024-02-16T03:20:36;50384.00;;;-149.77;51.29
60055;BME280;45930;53.514;55.904;2024-02-16T03:21:37;50431.53;;;-149.77;51.24
60055;BME280;45930;53.514;55.904;2024-02-16T03:22:38;50433.53;;;-149.77;51.28
60055;BME280;45930;53.514;55.904;2024-02-16T03:23:38;50395.88;;;-149.77;51.49
60055;BME280;45930;53.514;55.904;2024-02-16T03:24:39;50411.72;;;-149.77;51.31
60055;BME280;45930;53.514;55.904;2024-02-16T03:25:40;50389.94;;;-149.77;51.06
60055;BME280;45930;53.514;55.904;2024-02-16T03:26:41;50407.75;;;-149.77;51.18
60055;BME280;45930;53.514;55.904;2024-02-16T03:27:42;50401.81;;;-149.77;50.91
60055;BME280;45930;53.514;55.904;2024-02-16T03:28:44;50384.00;;;-149.77;50.66
60055;BME280;45930;53.514;55.904;2024-02-16T03:29:47;50374.09;;;-149.77;50.88
60055;BME280;45930;53.514;55.904;2024-02-16T03:30:48;50407.75;;;-149.77;50.77
60055;BME280;45930;53.514;55.904;2024-02-16T03:31:49;50395.88;;;-149.77;50.69
60055;BME280;45930;53.514;55.904;2024-02-16T03:32:51;50370.13;;;-149.77;50.68
60055;BME280;45930;53.514;55.904;2024-02-16T03:33:52;50411.72;;;-149.77;50.71
60055;BME280;45930;53.514;55.904;2024-02-16T03:34:53;50346.34;;;-149.77;50.49
60055;BME280;45930;53.514;55.904;2024-02-16T03:35:54;50421.63;;;-149.77;50.28
60055;BME280;45930;53.514;55.904;2024-02-16T03:36:54;50395.88;;;-149.77;50.31
60055;BME280;45930;53.514;55.904;2024-02-16T03:37:55;50407.75;;;-149.77;50.30
60055;BME280;45930;53.514;55.904;2024-02-16T03:38:57;50366.16;;;-149.77;50.15
60055;BME280;45930;53.514;55.904;2024-02-16T03:39:57;50368.13;;;-149.77;50.28
60055;BME280;45930;53.514;55.904;2024-02-16T03:40:58;50399.84;;;-149.77;50.31
60055;BME280;45930;53.514;55.904;2024-02-16T03:41:59;50409.75;;;-149.77;50.12
60055;BME280;45930;53.514;55.904;2024-02-16T03:43:01;50387.94;;;-149.77;50.55
60055;BME280;45930;53.514;55.904;2024-02-16T03:44:01;50372.09;;;-149.77;50.55
60055;BME280;45930;53.514;55.904;2024-02-16T03:45:02;50389.94;;;-149.77;50.47
60055;BME280;45930;53.514;55.904;2024-02-16T03:46:03;50409.75;;;-149.77;50.11
60055;BME280;45930;53.514;55.904;2024-02-16T03:47:04;50389.94;;;-149.77;50.51
60055;BME280;45930;53.514;55.904;2024-02-16T03:48:05;50384.00;;;-149.77;50.03
60055;BME280;45930;53.514;55.904;2024-02-16T03:49:06;50382.00;;;-149.77;50.20
60055;BME280;45930;53.514;55.904;2024-02-16T03:50:08;50382.00;;;-149.77;49.92
60055;BME280;45930;53.514;55.904;2024-02-16T03:51:09;50387.94;;;-149.77;49.80
60055;BME280;45930;53.514;55.904;2024-02-16T03:52:09;50332.47;;;-149.77;49.96
60055;BME280;45930;53.514;55.904;2024-02-16T03:53:11;50360.22;;;-149.77;49.79
60055;BME280;45930;53.514;55.904;2024-02-16T03:54:11;50368.13;;;-149.77;50.05
60055;BME280;45930;53.514;55.904;2024-02-16T03:55:12;50374.09;;;-149.77;50.12
60055;BME280;45930;53.514;55.904;2024-02-16T03:56:19;50312.66;;;-149.77;49.81
60055;BME280;45930;53.514;55.904;2024-02-16T03:57:19;50380.03;;;-149.77;49.66
60055;BME280;45930;53.514;55.904;2024-02-16T03:58:21;50352.28;;;-149.77;49.61
60055;BME280;45930;53.514;55.904;2024-02-16T03:59:22;50393.91;;;-149.77;49.56
60055;BME280;45930;53.514;55.904;2024-02-16T04:00:24;50407.75;;;-149.77;49.54
60055;BME280;45930;53.514;55.904;2024-02-16T04:01:24;50368.13;;;-149.77;49.81
60055;BME280;45930;53.514;55.904;2024-02-16T04:02:25;50348.31;;;-149.77;49.46
60055;BME280;45930;53.514;55.904;2024-02-16T04:03:26;50382.00;;;-149.77;49.72
60055;BME280;45930;53.514;55.904;2024-02-16T04:04:27;50352.28;;;-149.77;49.54
60055;BME280;45930;53.514;55.904;2024-02-16T04:05:28;50372.09;;;-149.77;49.79
60055;BME280;45930;53.514;55.904;2024-02-16T04:06:33;50368.13;;;-149.77;49.89
60055;BME280;45930;53.514;55.904;2024-02-16T04:07:34;50362.19;;;-149.77;50.00
60055;BME280;45930;53.514;55.904;2024-02-16T04:08:35;50376.06;;;-149.77;49.78
60055;BME280;45930;53.514;55.904;2024-02-16T04:09:36;50372.09;;;-149.77;49.72
60055;BME280;45930;53.514;55.904;2024-02-16T04:10:37;50362.19;;;-149.77;49.73
60055;BME280;45930;53.514;55.904;2024-02-16T04:11:37;50342.38;;;-149.77;49.79
60055;BME280;45930;53.514;55.904;2024-02-16T04:12:38;50328.50;;;-149.77;49.33
60055;BME280;45930;53.514;55.904;2024-02-16T04:13:39;50393.91;;;-149.77;49.04
60055;BME280;45930;53.514;55.904;2024-02-16T04:14:39;50451.34;;;-149.77;48.66
60055;BME280;45930;53.514;55.904;2024-02-16T04:15:42;50415.69;;;-149.77;48.91
60055;BME280;45930;53.514;55.904;2024-02-16T04:16:43;50439.47;;;-149.77;48.94
60055;BME280;45930;53.514;55.904;2024-02-16T04:17:44;50435.50;;;-149.77;48.98
60055;BME280;45930;53.514;55.904;2024-02-16T04:18:45;50380.03;;;-149.77;48.76
60055;BME280;45930;53.514;55.904;2024-02-16T04:19:46;50370.13;;;-149.77;49.32
60055;BME280;45930;53.514;55.904;2024-02-16T04:20:47;50364.19;;;-149.77;49.11
60055;BME280;45930;53.514;55.904;2024-02-16T04:21:47;50385.97;;;-149.77;49.04
60055;BME280;45930;53.514;55.904;2024-02-16T04:22:48;50391.91;;;-149.77;48.61
60055;BME280;45930;53.514;55.904;2024-02-16T04:23:49;50376.06;;;-149.77;48.77
60055;BME280;45930;53.514;55.904;2024-02-16T04:24:50;50370.13;;;-149.77;48.17
60055;BME280;45930;53.514;55.904;2024-02-16T04:25:50;50411.72;;;-149.77;48.24
60055;BME280;45930;53.514;55.904;2024-02-16T04:26:51;50393.91;;;-149.77;47.86
60055;BME280;45930;53.514;55.904;2024-02-16T04:27:53;50403.81;;;-149.77;48.00
60055;BME280;45930;53.514;55.904;2024-02-16T04:28:53;50409.75;;;-149.77;48.16
60055;BME280;45930;53.514;55.904;2024-02-16T04:29:54;50427.56;;;-149.77;47.74
60055;BME280;45930;53.514;55.904;2024-02-16T04:30:55;50427.56;;;-149.77;47.85
60055;BME280;45930;53.514;55.904;2024-02-16T04:31:55;50447.38;;;-149.77;47.50
60055;BME280;45930;53.514;55.904;2024-02-16T04:32:56;50407.75;;;-149.77;48.14
60055;BME280;45930;53.514;55.904;2024-02-16T04:33:57;50433.53;;;-149.77;48.11
60055;BME280;45930;53.514;55.904;2024-02-16T04:34:58;50397.84;;;-149.77;47.81
60055;BME280;45930;53.514;55.904;2024-02-16T04:35:59;50387.94;;;-149.77;47.91
60055;BME280;45930;53.514;55.904;2024-02-16T04:37:00;50372.09;;;-149.77;48.36
60055;BME280;45930;53.514;55.904;2024-02-16T04:38:00;50423.63;;;-149.77;48.55
60055;BME280;45930;53.514;55.904;2024-02-16T04:39:01;50352.28;;;-149.77;48.36
60055;BME280;45930;53.514;55.904;2024-02-16T04:40:02;50358.22;;;-149.77;48.52
60055;BME280;45930;53.514;55.904;2024-02-16T04:41:06;50338.41;;;-149.77;48.41
60055;BME280;45930;53.514;55.904;2024-02-16T04:42:08;50360.22;;;-149.77;48.23
60055;BME280;45930;53.514;55.904;2024-02-16T04:43:09;50332.47;;;-149.77;48.29
60055;BME280;45930;53.514;55.904;2024-02-16T04:44:10;50334.44;;;-149.77;48.41
60055;BME280;45930;53.514;55.904;2024-02-16T04:45:12;50332.47;;;-149.77;48.14
60055;BME280;45930;53.514;55.904;2024-02-16T04:46:15;50344.34;;;-149.77;48.25
60055;BME280;45930;53.514;55.904;2024-02-16T04:47:16;50296.81;;;-149.77;48.58
60055;BME280;45930;53.514;55.904;2024-02-16T04:48:17;50288.88;;;-149.77;48.27
60055;BME280;45930;53.514;55.904;2024-02-16T04:49:18;50312.66;;;-149.77;48.59
60055;BME280;45930;53.514;55.904;2024-02-16T04:50:19;50280.97;;;-149.77;48.44
60055;BME280;45930;53.514;55.904;2024-02-16T04:51:19;50308.69;;;-149.77;48.36
60055;BME280;45930;53.514;55.904;2024-02-16T04:52:20;50318.59;;;-149.77;48.34
60055;BME280;45930;53.514;55.904;2024-02-16T04:53:21;50277.00;;;-149.77;48.24
60055;BME280;45930;53.514;55.904;2024-02-16T04:54:22;50312.66;;;-149.77;48.21
60055;BME280;45930;53.514;55.904;2024-02-16T04:55:23;50312.66;;;-149.77;48.26
60055;BME280;45930;53.514;55.904;2024-02-16T04:56:23;50273.03;;;-149.77;48.16
60055;BME280;45930;53.514;55.904;2024-02-16T04:57:24;50290.88;;;-149.77;47.84
60055;BME280;45930;53.514;55.904;2024-02-16T04:58:25;50320.59;;;-149.77;48.05
60055;BME280;45930;53.514;55.904;2024-02-16T04:59:25;50261.16;;;-149.77;48.05
60055;BME280;45930;53.514;55.904;2024-02-16T05:00:26;50288.88;;;-149.77;48.08
60055;BME280;45930;53.514;55.904;2024-02-16T05:01:27;50296.81;;;-149.77;47.94
60055;BME280;45930;53.514;55.904;2024-02-16T05:02:29;50306.72;;;-149.77;48.07
60055;BME280;45930;53.514;55.904;2024-02-16T05:03:30;50280.97;;;-149.77;47.64
60055;BME280;45930;53.514;55.904;2024-02-16T05:04:31;50275.00;;;-149.77;47.71
60055;BME280;45930;53.514;55.904;2024-02-16T05:05:32;50292.84;;;-149.77;47.81
60055;BME280;45930;53.514;55.904;2024-02-16T05:06:33;50282.94;;;-149.77;47.81
60055;BME280;45930;53.514;55.904;2024-02-16T05:07:34;50237.38;;;-149.77;47.81
60055;BME280;45930;53.514;55.904;2024-02-16T05:08:36;50265.09;;;-149.77;47.83
60055;BME280;45930;53.514;55.904;2024-02-16T05:09:37;50282.94;;;-149.77;47.98
60055;BME280;45930;53.514;55.904;2024-02-16T05:10:40;50275.00;;;-149.77;47.96
60055;BME280;45930;53.514;55.904;2024-02-16T05:11:41;50308.69;;;-149.77;48.12